58OH weather

Rattlesnake Island Airport
Put In Bay, Ohio, United States

Public forecast

Using degrees Fahrenheit for public forecast. Weather courtesy of forecast.io.

Closest aviation weather report (METAR) to Rattlesnake Island Airport

Closest report is Carl R Keller Field, 9.8 nm (18.2 km) S. Retrieved 2020/06/04 22:55 UTC (15 minutes ago):

KPCW 042255Z AUTO 09006KT 10SM SCT060 BKN070 27/19 A2976 RMK AO2

Closest aviation forecast (TAF) to Rattlesnake Island Airport

Closest forecast is Windsor Airport, 36.1 nm (66.9 km) N. Retrieved 2020/06/04 18:40 UTC (5 hours ago):

TAF CYQG 041738Z 0418/0518 24010KT P6SM SCT060 BKN140 TEMPO 0420/0502 P6SM VCTS BKN060CB FM050200 18006KT P6SM SCT050 FM050700 VRB03KT P6SM SKC PROB30 0507/0511 1SM BR FM051500 25010KT P6SM SCT050 RMK FCST BASED ON AUTO OBS NXT FCST BY 050000Z